createdAt,value
2022-08-07T00:12:43.616Z,17.74
2022-08-07T00:32:42.031Z,17.74
2022-08-07T00:52:42.020Z,17.74
2022-08-07T01:12:53.605Z,17.73
2022-08-07T01:32:41.945Z,17.74
2022-08-07T01:52:49.535Z,17.73
2022-08-07T02:12:41.866Z,17.73
2022-08-07T02:33:00.291Z,17.73
2022-08-07T03:52:41.683Z,17.72
2022-08-07T04:12:41.618Z,17.71
2022-08-07T04:32:44.606Z,17.7
2022-08-07T04:52:46.901Z,17.7
2022-08-07T05:32:41.490Z,17.68
2022-08-07T05:52:41.453Z,17.67
2022-08-07T06:12:41.149Z,17.66
2022-08-07T06:32:41.386Z,17.65
2022-08-07T07:12:41.672Z,17.64
2022-08-07T07:52:41.222Z,17.64
2022-08-07T08:12:51.450Z,17.63
2022-08-07T08:52:51.587Z,17.63
2022-08-07T09:32:41.027Z,17.63
2022-08-07T10:32:51.796Z,17.6
2022-08-07T10:52:42.685Z,17.58
2022-08-07T11:32:40.798Z,17.56
2022-08-07T12:12:40.714Z,17.54
2022-08-07T12:32:40.682Z,17.54
2022-08-07T12:52:40.635Z,17.53
2022-08-07T13:12:40.594Z,17.53
2022-08-07T13:32:40.549Z,17.53
2022-08-07T13:52:41.049Z,17.53
2022-08-07T14:12:41.744Z,17.53
2022-08-07T14:32:40.428Z,17.52
2022-08-07T14:52:40.403Z,17.52
2022-08-07T15:12:42.072Z,17.51
2022-08-07T15:32:50.920Z,17.5
2022-08-07T15:52:40.009Z,17.49
2022-08-07T16:12:40.226Z,17.48
2022-08-07T16:32:46.122Z,17.48
2022-08-07T16:52:52.247Z,17.47
2022-08-07T17:12:43.973Z,17.46
2022-08-07T17:52:40.288Z,17.45
2022-08-07T18:12:39.981Z,17.45
2022-08-07T18:32:41.623Z,17.44
2022-08-07T18:52:52.007Z,17.44
2022-08-07T19:12:45.867Z,17.44
2022-08-07T19:32:45.100Z,17.44
2022-08-07T19:52:42.007Z,17.44
2022-08-07T20:12:39.919Z,17.44
2022-08-07T20:32:40.519Z,17.44
2022-08-07T20:52:50.358Z,17.44
2022-08-07T21:12:39.628Z,17.44
2022-08-07T21:32:43.420Z,17.44
2022-08-07T21:52:39.537Z,17.44
2022-08-07T22:12:39.818Z,17.44
2022-08-07T23:32:49.803Z,17.44
2022-08-07T23:53:08.973Z,17.44
